Etusivu
METAR-TAF:

METAR-TAF

Lentoasemat :

Heathrow’n lentoasema

Lontoo-Heathrow, Englanti

Leveyspiiri: 51-29N, Pituuspiiri: 000-27W, korkeus merenpinnasta: 24 m

Tämänhetkinen sää

Tämä raportti tehtiin 36 minuuttia sitten, kello 00.20 UTC
Tuuli 2 kn eri suunnista
Lämpötila 5°C
Kosteus 81%
Ilmanpaine 1020 hPa
Näkyvyys 10 km tai enemmän

METAR: EGLL 240020Z AUTO VRB02KT 9999 NCD 05/02 Q1020

Aika: 01:56 (00:56 UTC)

Sääennuste

Tämä raportti tehtiin 2 tuntia ja 3 minuuttia sitten, kello 22.53 UTC
Ennuste voimassa 24. päivästä klo 00 UTC - 25. päivään klo 06 UTC
Tuuli 7 kn pohjoisesta
Näkyvyys 10 km tai enemmän
Hajanaisia pilviä 3000 ft:n korkeudessa

TAF: EGLL 232253Z 2400/2506 35007KT 9999 SCT030

Säähavainnot ja -ennusteet yli 4000 lentoasemalta (METAR- ja TAF-raportit).

Käytössä olevat sääasemat on merkitty karttaan keltaisilla ja punaisilla pisteillä.

Aseta hiiri pisteen päälle nähdäksesi sääaseman nimen.

Klikkaa sitten nähdäksesi säähavainnot ja -ennusteet.

Kartan vaihtaminen: klikkaa mustalla rastilla varustettuja vihreitä pisteitä, niin voit zoomata sisään; viivalla varustettua vihreää pistettä, niin voit zoomata ulos tai vihreitä nuolia, niin pääset viereisille kartoille.


METAR-TAF: